Edmonton International Airport

CYEG · Alberta, Canada

METAR history CYEG · Edmonton International Airport

Below you see METARs of the last few days. Select a year to browse through older METARs, from the year 2007 onwards.

May 25, 2024

Time Code Weather Temp. Visibility Ceiling Wind METAR/SPECI
09:00
V
10 °C 20 mi 14,000 ft 110° 110° 8 kt METAR CYEG 251500Z 11008KT 20SM SCT083 BKN140 BKN250 10/06 A2962 RMK AC3AC2CI1 CI TR SLP042 DENSITY ALT 2700FT
08:00
V
8 °C 20 mi - 130° 130° 6 kt METAR CYEG 251400Z 13006KT 20SM SCT083 SCT140 SCT250 08/06 A2962 RMK AC3AC1CI1 CI TR SLP044
07:00
V
5 °C 20 mi - 110° 110° 7 kt METAR CYEG 251300Z 11007KT 20SM FEW075 SCT250 05/05 A2962 RMK AC2CI1 SLP045
06:00
V
5 °C 20 mi - 120° 120° 7 kt METAR CYEG 251200Z 12007KT 20SM FEW076 FEW110 SCT250 05/05 A2962 RMK AC2AC1CI2 AC TR ACC ASOCTD VIRGA PTCHS N-SE CONTRAILS SLP047
05:00
V
5 °C 20 mi 11,000 ft 120° 120° 6 kt METAR CYEG 251100Z 12006KT 20SM SCT076 BKN110 05/05 A2962 RMK AC3AC3 ACC EMBD SH DIST N VIRGA DIST NE-SE SLP046
04:00
V
6 °C 20 mi 7,600 ft 130° 130° 5 kt METAR CYEG 251000Z 13005KT 20SM BKN076 BKN090 06/06 A2963 RMK AC5AC2 VIRGA DIST NE-SE SLP048
03:00
V
6 °C 20 mi 9,900 ft 130° 130° 8 kt METAR CYEG 250900Z 13008KT 20SM SCT077 BKN099 06/05 A2964 RMK AC3AC4 SLP050
02:00
V
6 °C 20 mi 9,200 ft 130° 130° 9 kt METAR CYEG 250800Z 13009KT 20SM BKN092 06/04 A2964 RMK AC5 SLP053
01:00
V
7 °C 20 mi - 130° 130° 10 kt METAR CYEG 250700Z 13010KT 20SM FEW092 FEW250 07/04 A2965 RMK AC1CI1 CI TR SLP056
00:00
V
7 °C 20 mi - 130° 130° 11 kt METAR CYEG 250600Z 13011KT 20SM FEW090 FEW250 07/03 A2966 RMK AC1CI1 AC TR CI TR SLP060

May 24, 2024

Time Code Weather Temp. Visibility Ceiling Wind METAR/SPECI
23:00
V
6 °C 20 mi - 120° 120° 8 kt METAR CYEG 250500Z 12008KT 20SM FEW090 FEW250 06/01 A2966 RMK AC1CI1 AC TR CI TR SLP062
22:00
V
10 °C 20 mi - 100° 100° 8 kt METAR CYEG 250400Z 10008KT 20SM FEW060 FEW150 FEW250 10/02 A2967 RMK SC1AC1CI1 SC TR AC TR CONTRAILS SLP060 DENSITY ALT 2700FT
21:00
V
12 °C 20 mi - 100° 100° 9 kt METAR CYEG 250300Z 10009KT 20SM FEW060 FEW150 SCT250 12/02 A2966 RMK SC2AC1CI1 AC TR CU ASOCTD SLP056 DENSITY ALT 2900FT
20:00
V
13 °C 20 mi - 070° 070° 4 kt METAR CYEG 250200Z 07004KT 050V120 20SM SCT060 SCT150 SCT250 13/01 A2966 RMK CU3AC1CI1 AC TR SLP058 DENSITY ALT 3000FT
19:00
V
15 °C 20 mi 5,600 ft 070° 070° 7 kt METAR CYEG 250100Z 07007KT 20SM BKN056 BKN150 BKN250 15/01 A2966 RMK CU5AC1CI1 AC TR CI TR SLP057 DENSITY ALT 3200FT
18:00
V
15 °C 20 mi 5,200 ft 090° 090° 8 kt METAR CYEG 250000Z 09008KT 20SM BKN052 BKN150 15/01 A2966 RMK CU5AC1 AC TR SLP060 DENSITY ALT 3200FT
17:00
V
14 °C 20 mi 5,200 ft 070° 070° 6 kt METAR CYEG 242300Z 07006KT 020V100 20SM BKN052 BKN080 14/01 A2967 RMK CU6AC1 SLP065 DENSITY ALT 3100FT
16:00
V
14 °C 20 mi 4,800 ft Var Var 6 kt METAR CYEG 242200Z VRB06KT 20SM BKN048 BKN080 BKN250 14/01 A2968 RMK CU6AC1CI1 AC TR CI TR SLP065 DENSITY ALT 3100FT
15:00
V
14 °C 20 mi 4,800 ft 030° 030° 8 kt METAR CYEG 242100Z 03008KT 010V120 20SM BKN048 BKN080 BKN250 14/01 A2969 RMK CU6AC1CI1 CI TR SLP069 DENSITY ALT 3200FT
14:00
V
13 °C 20 mi 4,800 ft 060° 060° 8 kt METAR CYEG 242000Z 06008KT 020V180 20SM BKN048 BKN080 BKN250 13/02 A2970 RMK CU6AC1CI1 CI TR SLP074 DENSITY ALT 3000FT
13:00
V
13 °C 20 mi 4,800 ft 080° 080° 6 kt METAR CYEG 241900Z 08006KT 360V150 20SM BKN048 BKN080 BKN250 13/01 A2971 RMK CU6AC1CI1 CI TR SLP077 DENSITY ALT 3000FT
12:00
V
12 °C 20 mi 4,500 ft 120° 120° 4 kt METAR CYEG 241800Z 12004KT 060V220 20SM BKN045 BKN250 12/00 A2972 RMK CU6CI1 SLP083 DENSITY ALT 2800FT
11:00
V
12 °C 20 mi 3,900 ft 050° 050° 3 kt METAR CYEG 241700Z 05003KT 010V130 20SM BKN039 BKN250 12/02 A2973 RMK CU6CI1 CI TR SLP084 DENSITY ALT 2800FT
10:00
V
11 °C 20 mi 8,000 ft 080° 080° 5 kt METAR CYEG 241600Z 08005KT 20SM SCT036 BKN080 BKN250 11/02 A2974 RMK CU4AC1CI1 CI TR SLP088 DENSITY ALT 2700FT
09:00
V
10 °C 20 mi 7,800 ft 110° 110° 6 kt METAR CYEG 241500Z 11006KT 060V140 20SM FEW027 BKN078 BKN250 10/03 A2975 RMK CU1AC6CI1 CU TR CI TR SLP091
08:00
V
7 °C 20 mi 7,800 ft 120° 120° 5 kt METAR CYEG 241400Z 12005KT 20SM FEW060 BKN078 BKN250 07/04 A2976 RMK SC1AC6CI1 SC TR CI TR SLP094
07:00
V
6 °C 20 mi 7,800 ft 360° 360° 0 kt METAR CYEG 241300Z 00000KT 20SM FEW060 BKN078 BKN250 06/04 A2976 RMK SC1AC6CI1 SC TR SLP095
06:00
V
5 °C 20 mi 7,600 ft 120° 120° 6 kt METAR CYEG 241200Z 12006KT 20SM FEW060 BKN076 BKN250 05/04 A2977 RMK SC1AC4CI1 SLP098
05:00
V
4 °C 20 mi 8,200 ft 120° 120° 5 kt METAR CYEG 241100Z 12005KT 20SM FEW020 BKN082 04/03 A2977 RMK SC1AC7 SC TR SLP101
04:00
V
5 °C 20 mi 8,100 ft 220° 220° 2 kt METAR CYEG 241000Z 22002KT 20SM BKN081 05/03 A2979 RMK AC7 SLP106
03:00
V
6 °C 20 mi 7,800 ft 120° 120° 5 kt METAR CYEG 240900Z 12005KT 20SM BKN078 06/04 A2980 RMK AC7 SLP110
02:00
V
6 °C 20 mi 8,000 ft 110° 110° 6 kt METAR CYEG 240800Z CCA 11006KT 20SM FEW020 BKN080 06/03 A2982 RMK SC1AC7 SC TR SLP116
01:00
V
6 °C 20 mi 7,900 ft 120° 120° 6 kt METAR CYEG 240700Z 12006KT 20SM BKN079 06/02 A2984 RMK AC7 SLP123
00:00
V
6 °C 20 mi 7,600 ft 130° 130° 6 kt METAR CYEG 240600Z 13006KT 20SM BKN076 BKN200 06/02 A2985 RMK AC6CI1 SLP129

May 23, 2024

Time Code Weather Temp. Visibility Ceiling Wind METAR/SPECI
23:00
V
8 °C 20 mi 7,300 ft 110° 110° 7 kt METAR CYEG 240500Z 11007KT 20SM BKN073 BKN200 08/01 A2986 RMK AC7CI1 CI TR SLP130
22:00
V
8 °C 20 mi 6,900 ft 110° 110° 6 kt METAR CYEG 240400Z 11006KT 20SM FEW040 BKN069 BKN200 08/01 A2987 RMK SC1AC7CI1 SC TR CI TR SLP136
21:00
V
9 °C 20 mi 7,400 ft 100° 100° 5 kt METAR CYEG 240300Z 10005KT 20SM FEW040 BKN074 BKN200 09/02 A2988 RMK CU1AC6CI1 CU TR SLP138
20:00
V
10 °C 20 mi 20,000 ft 100° 100° 6 kt METAR CYEG 240200Z 10006KT 20SM FEW044 FEW080 BKN200 10/02 A2987 RMK CU1AC1CI6 CU TR SLP135
19:00
V
11 °C 20 mi 8,000 ft 100° 100° 3 kt METAR CYEG 240100Z 10003KT 010V120 20SM SCT044 BKN080 BKN210 11/02 A2988 RMK CU3AC2CI2 SLP138 DENSITY ALT 2600FT
18:00
V
12 °C 20 mi 8,000 ft 070° 070° 4 kt METAR CYEG 240000Z 07004KT 010V090 20SM FEW035 OVC080 12/01 A2990 RMK CU2AC6 SLP144 DENSITY ALT 2600FT
17:00
V
11 °C 20 mi 3,500 ft 060° 060° 7 kt METAR CYEG 232300Z 06007KT 010V080 20SM BKN035 BKN080 OVC250 11/02 A2990 RMK CU5AC2CI1 SLP146
16:00
V
11 °C 20 mi 3,500 ft 050° 050° 6 kt METAR CYEG 232200Z 05006KT 330V080 20SM BKN035 OVC080 11/02 A2990 RMK SC5AC3 SLP145
15:00
V
10 °C 20 mi 3,200 ft 080° 080° 8 kt METAR CYEG 232100Z 08008KT 20SM BKN032 BKN080 10/02 A2991 RMK CU5AC2 TCU ASOCTD SLP148
14:00
V
10 °C 20 mi 3,200 ft 040° 040° 9 - 15 kt METAR CYEG 232000Z 04009G15KT 20SM BKN032 OVC100 10/03 A2991 RMK CU7AC1 TCU ASOCTD VIRGA OHD SLP149
13:00
M
10 °C 20 mi 2,500 ft 360° 360° 6 kt METAR CYEG 231900Z 36006KT 270V030 20SM BKN025 BKN052 OVC100 10/02 A2992 RMK CU6SC1AC1 TCU ASOCTD VIRGA OHD SLP150
12:00
M
9 °C 20 mi 2,500 ft 080° 080° 4 kt METAR CYEG 231800Z 08004KT 010V110 20SM BKN025 BKN052 OVC100 09/02 A2993 RMK CU5SC2AC1 SLP156
11:00
M
9 °C 20 mi 1,600 ft 030° 030° 5 kt METAR CYEG 231700Z 03005KT 330V070 20SM BKN016 BKN050 OVC095 09/03 A2994 RMK CU5SC2AC1 SLP157
10:00
V
7 °C 20 mi 5,000 ft 010° 010° 4 kt METAR CYEG 231600Z 01004KT 320V030 20SM SCT016 BKN050 OVC095 07/04 A2994 RMK CU4SC3AC1 SLP159
09:00
V
7 °C 20 mi 5,000 ft 360° 360° 5 kt METAR CYEG 231500Z 36005KT 20SM FEW012 SCT024 BKN050 OVC095 07/04 A2994 RMK SC1SC3SC2AC3 SC TR SLP159
08:00
M
6 °C 20 mi 2,400 ft 360° 360° 4 kt METAR CYEG 231400Z 36004KT 20SM FEW012 BKN024 BKN049 OVC100 06/06 A2994 RMK SC1SC5SC2AS1 SC TR SLP157
07:22
M
6 °C 20 mi 2,400 ft 010° 010° 4 kt METAR CYEG 231322Z 01004KT 20SM FEW012 BKN024 BKN049 BKN100 06/05 A2994 RMK SC1SC5SC2AS1 SC TR AS TR SLP158
07:00
M
6 °C 20 mi 2,400 ft 010° 010° 3 kt METAR CYEG 231300Z 01003KT 20SM -SHRA FEW012 BKN024 BKN049 BKN100 06/05 A2994 RMK SC1SC5SC2AS1 SC TR AS TR CVCTV CLD EMBD SLP156
06:40
V
6 °C 20 mi 6,200 ft 010° 010° 6 kt METAR CYEG 231240Z 01006KT 20SM FEW012 FEW022 SCT038 BKN062 BKN100 06/06 A2994 RMK SC1SC2SC1SC3AS1 SC TR SLP157
06:22
V
6 °C 20 mi 3,800 ft 010° 010° 6 kt METAR CYEG 231222Z 01006KT 20SM -SHRA FEW012 SCT020 BKN038 OVC100 06/06 A2993 RMK SF1SC4SC3AS1 SF TR CVCTV CLD EMBD SLP156
06:00
M
6 °C 20 mi 2,000 ft 010° 010° 6 kt METAR CYEG 231200Z 01006KT 20SM BKN020 BKN059 OVC100 06/06 A2993 RMK SC5SC2AS1 SLP156
05:00
V
6 °C 20 mi 10,000 ft 020° 020° 5 kt METAR CYEG 231100Z 02005KT 20SM SCT050 OVC100 06/06 A2993 RMK SC3AC5 CVCTV CLD EMBD SH DIST NE-SE SLP153
04:42
V
6 °C 20 mi 10,000 ft 020° 020° 6 kt METAR CYEG 231042Z 02006KT 20SM FEW012 SCT045 OVC100 06/06 A2993 RMK SC1SC3AC5 SC TR CVCTV CLD EMBD SH DIST NE-SE SLP152
04:26
V
6 °C 20 mi 4,600 ft 020° 020° 5 kt METAR CYEG 231026Z 02005KT 20SM -SHRA FEW012 BKN046 OVC110 06/06 A2994 RMK SC2SC4AC2 CVCTV CLD EMBD SLP154
04:00
V
7 °C 20 mi 5,600 ft 020° 020° 6 kt METAR CYEG 231000Z 02006KT 20SM SCT008 BKN056 OVC110 07/07 A2994 RMK ST4SC3AC1 SLP156
03:00
M
7 °C 20 mi 2,700 ft 360° 360° 0 kt METAR CYEG 230900Z 00000KT 20SM FEW006 BKN027 BKN045 OVC100 07/07 A2993 RMK SF1SC6SC1AC1 SF TR SLP153
02:50
M
7 °C 20 mi 2,700 ft 280° 280° 2 kt METAR CYEG 230850Z 28002KT 20SM -SHRA FEW006 OVC027 07/07 A2994 RMK SF1SC8 SF TR CVCTV CLD EMBD SLP154
02:42
M
7 °C 15 mi 2,500 ft Var Var 2 kt METAR CYEG 230842Z VRB02KT 15SM -SHRA OVC025 07/07 A2994 RMK SC8 CVCTV CLD EMBD SLP154
02:00
V
7 °C 20 mi 4,800 ft 360° 360° 0 kt METAR CYEG 230800Z 00000KT 20SM FEW008 SCT027 OVC048 07/07 A2994 RMK SF1SC3SC5 SF TR SLP156
01:41
V
7 °C 20 mi 4,800 ft 360° 360° 0 kt METAR CYEG 230741Z 00000KT 20SM FEW008 OVC048 07/07 A2994 RMK SF1SC8 SF TR SLP156
01:00
V
7 °C 20 mi 4,600 ft 280° 280° 2 kt METAR CYEG 230700Z 28002KT 20SM -SHRA FEW008 SCT029 OVC046 07/07 A2995 RMK SF1SC4SC4 SF TR CVCTV CLD EMBD SLP157
00:34
V
7 °C 20 mi 5,600 ft 270° 270° 3 kt METAR CYEG 230634Z 27003KT 20SM -SHRA FEW008 SCT035 OVC056 07/07 A2995 RMK SF1SC3SC5 SF TR CVCTV CLD EMBD SLP159
00:00
V
7 °C 20 mi 4,900 ft 280° 280° 2 kt METAR CYEG 230600Z 28002KT 20SM FEW008 SCT042 OVC049 07/07 A2995 RMK SF1SC4SC4 SF TR SLP161

May 22, 2024

Time Code Weather Temp. Visibility Ceiling Wind METAR/SPECI
23:50
V
7 °C 20 mi 4,200 ft 310° 310° 3 kt METAR CYEG 230550Z 31003KT 20SM FEW008 BKN042 OVC053 07/07 A2995 RMK SF1SC6SC2 SF TR SLP161
Report a change